Time;durP1;ratioP1;P1;durP2;ratioP2;P2;SDS_P1;SDS_P2;PMS_P1;PMS_P2;Temp;Humidity;BMP_temperature;BMP_pressure;BME280_temperature;BME280_humidity;BME280_pressure;Samples;Min_cycle;Max_cycle;Signal;HPM_P1;HPM_P2
2023/11/10 00:01:23;;;;;;;5.22;2.80;;;;;;;;;;10245472;29;20442;-67
2023/11/10 00:06:24;;;;;;;15.38;2.63;;;;;;;;;;10259064;28;20078;-65
2023/11/10 00:11:26;;;;;;;3.10;2.45;;;;;;;;;;10244365;28;20023;-64
2023/11/10 00:16:27;;;;;;;7.07;2.60;;;;;;;;;;10245007;28;20163;-65
2023/11/10 00:21:27;;;;;;;4.30;2.92;;;;;;;;;;10243989;29;20628;-65
2023/11/10 00:26:33;;;;;;;4.78;2.45;;;;;;;;;;10244431;29;20480;-65
2023/11/10 00:31:33;;;;;;;10.93;2.60;;;;;;;;;;10244399;29;20063;-65
2023/11/10 00:36:34;;;;;;;8.82;2.67;;;;;;;;;;10247271;28;20387;-65
2023/11/10 00:41:34;;;;;;;6.40;2.38;;;;;;;;;;10251595;29;20036;-65
2023/11/10 00:46:35;;;;;;;3.88;2.80;;;;;;;;;;10252001;28;20508;-65
2023/11/10 00:51:39;;;;;;;4.25;2.40;;;;;;;;;;10251233;28;20156;-66
2023/11/10 00:56:39;;;;;;;8.27;2.83;;;;;;;;;;10250980;29;20034;-66
2023/11/10 01:01:40;;;;;;;5.85;2.65;;;;;;;;;;10249421;28;20023;-65
2023/11/10 01:06:41;;;;;;;5.57;2.95;;;;;;;;;;10250761;28;20035;-66
2023/11/10 01:11:43;;;;;;;3.08;2.05;;;;;;;;;;10250631;29;20040;-65
2023/11/10 01:16:43;;;;;;;4.07;2.28;;;;;;;;;;10249035;29;20066;-65
2023/11/10 01:21:46;;;;;;;3.85;2.63;;;;;;;;;;10249833;28;20388;-65
2023/11/10 01:26:50;;;;;;;5.50;2.83;;;;;;;;;;10249659;28;20042;-65
2023/11/10 01:31:50;;;;;;;4.57;2.60;;;;;;;;;;10249887;28;20034;-66
2023/11/10 01:36:51;;;;;;;5.70;2.60;;;;;;;;;;10249537;29;20024;-67
2023/11/10 01:41:52;;;;;;;3.40;2.20;;;;;;;;;;10249573;28;20140;-66
2023/11/10 01:46:53;;;;;;;10.40;2.38;;;;;;;;;;10249003;28;20047;-66
2023/11/10 01:51:54;;;;;;;4.35;2.30;;;;;;;;;;10247222;29;20039;-65
2023/11/10 01:56:55;;;;;;;3.33;2.00;;;;;;;;;;10249351;29;20779;-65
2023/11/10 02:01:56;;;;;;;2.10;1.90;;;;;;;;;;10248646;28;20391;-66
2023/11/10 02:06:58;;;;;;;2.22;2.00;;;;;;;;;;10248476;28;20035;-66
2023/11/10 02:11:58;;;;;;;5.22;2.25;;;;;;;;;;10248466;28;20090;-66
2023/11/10 02:16:59;;;;;;;6.05;2.40;;;;;;;;;;10247543;29;20456;-66
2023/11/10 02:22:01;;;;;;;2.97;2.20;;;;;;;;;;10246829;28;20023;-67
2023/11/10 02:27:01;;;;;;;2.92;2.20;;;;;;;;;;10246688;29;20071;-67
2023/11/10 02:32:02;;;;;;;3.08;2.03;;;;;;;;;;10247856;29;20488;-67
2023/11/10 02:37:03;;;;;;;3.78;2.50;;;;;;;;;;10247418;29;20035;-67
2023/11/10 02:42:04;;;;;;;3.35;2.45;;;;;;;;;;10247499;28;20037;-67
2023/11/10 02:47:05;;;;;;;3.13;2.15;;;;;;;;;;10246957;29;20039;-67
2023/11/10 02:52:06;;;;;;;4.32;2.38;;;;;;;;;;10245523;28;20047;-67
2023/11/10 02:57:08;;;;;;;4.25;2.42;;;;;;;;;;10245862;28;20023;-67
2023/11/10 03:02:11;;;;;;;2.88;2.10;;;;;;;;;;10246116;28;20055;-67
2023/11/10 03:07:11;;;;;;;3.47;2.03;;;;;;;;;;10244367;29;20097;-67
2023/11/10 03:12:12;;;;;;;3.20;1.88;;;;;;;;;;10246804;28;20023;-66
2023/11/10 03:17:12;;;;;;;3.70;1.98;;;;;;;;;;10246411;28;20067;-67
2023/11/10 03:22:13;;;;;;;2.22;1.95;;;;;;;;;;10245146;28;20034;-67
2023/11/10 03:27:14;;;;;;;4.30;2.13;;;;;;;;;;10244912;28;20031;-67
2023/11/10 03:32:15;;;;;;;4.93;2.13;;;;;;;;;;10245195;28;20035;-66
2023/11/10 03:37:17;;;;;;;3.17;2.08;;;;;;;;;;10245869;28;20089;-64
2023/11/10 03:42:17;;;;;;;3.28;1.80;;;;;;;;;;10245347;28;20043;-66
2023/11/10 03:47:18;;;;;;;2.55;2.00;;;;;;;;;;10245364;29;20387;-66
2023/11/10 03:52:19;;;;;;;2.58;1.98;;;;;;;;;;10244533;29;20459;-66
2023/11/10 03:57:19;;;;;;;2.92;1.75;;;;;;;;;;10243438;29;20402;-66
2023/11/10 04:02:20;;;;;;;2.03;1.65;;;;;;;;;;10245014;28;20034;-64
2023/11/10 04:07:21;;;;;;;2.55;1.90;;;;;;;;;;10243476;28;20083;-67
2023/11/10 04:12:22;;;;;;;2.10;1.73;;;;;;;;;;10249817;28;20024;-67
2023/11/10 04:17:24;;;;;;;2.20;1.80;;;;;;;;;;10252273;28;20047;-67
2023/11/10 04:22:25;;;;;;;2.67;1.85;;;;;;;;;;10252108;28;20034;-66
2023/11/10 04:27:25;;;;;;;3.38;1.80;;;;;;;;;;10251540;29;20034;-67
2023/11/10 04:32:26;;;;;;;2.50;1.80;;;;;;;;;;10252240;28;20423;-66
2023/11/10 04:37:27;;;;;;;3.00;1.90;;;;;;;;;;10251643;28;20385;-67
2023/11/10 04:42:28;;;;;;;2.92;2.17;;;;;;;;;;10252143;29;20031;-66
2023/11/10 04:47:29;;;;;;;2.30;1.90;;;;;;;;;;10252563;28;20031;-67
2023/11/10 04:52:29;;;;;;;2.67;1.85;;;;;;;;;;10251761;28;20047;-67
2023/11/10 04:57:30;;;;;;;1.83;1.73;;;;;;;;;;10250983;29;20042;-66
2023/11/10 05:02:30;;;;;;;2.05;1.80;;;;;;;;;;10250819;29;20039;-66
2023/11/10 05:07:31;;;;;;;2.13;1.88;;;;;;;;;;10263956;28;20066;-66
2023/11/10 05:12:32;;;;;;;2.35;1.90;;;;;;;;;;10250233;28;20059;-66
2023/11/10 05:17:43;;;;;;;2.45;1.95;;;;;;;;;;10250708;28;20033;-65
2023/11/10 05:22:43;;;;;;;2.47;2.00;;;;;;;;;;10249460;28;20031;-66
2023/11/10 05:27:44;;;;;;;2.00;1.80;;;;;;;;;;10249609;28;20027;-66
2023/11/10 05:32:45;;;;;;;1.63;1.52;;;;;;;;;;10249688;28;20023;-66
2023/11/10 05:37:45;;;;;;;5.55;1.80;;;;;;;;;;10250016;28;20023;-65
2023/11/10 05:42:46;;;;;;;2.13;1.70;;;;;;;;;;10248357;28;21265;-66
2023/11/10 05:47:47;;;;;;;2.40;1.80;;;;;;;;;;10239698;29;20609;-66
2023/11/10 05:52:49;;;;;;;1.80;1.63;;;;;;;;;;10247813;28;20050;-67
2023/11/10 05:57:50;;;;;;;1.77;1.67;;;;;;;;;;10248433;28;20031;-65
2023/11/10 06:02:50;;;;;;;1.70;1.52;;;;;;;;;;10248858;28;20043;-66
2023/11/10 06:07:54;;;;;;;2.58;1.50;;;;;;;;;;10249276;29;20090;-68
2023/11/10 06:12:55;;;;;;;1.65;1.55;;;;;;;;;;10248616;29;20106;-67
2023/11/10 06:17:55;;;;;;;2.42;1.60;;;;;;;;;;10248226;29;20043;-68
2023/11/10 06:22:56;;;;;;;1.73;1.50;;;;;;;;;;10248168;29;20027;-67
2023/11/10 06:27:57;;;;;;;1.90;1.50;;;;;;;;;;10248132;28;20031;-67
2023/11/10 06:32:57;;;;;;;2.72;1.92;;;;;;;;;;10246685;28;20027;-67
2023/11/10 06:37:58;;;;;;;2.33;1.70;;;;;;;;;;10246489;29;20023;-67
2023/11/10 06:42:59;;;;;;;1.58;1.45;;;;;;;;;;10246217;28;20055;-67
2023/11/10 06:48:03;;;;;;;1.92;1.60;;;;;;;;;;10246336;28;20035;-67
2023/11/10 06:53:03;;;;;;;2.25;1.52;;;;;;;;;;10246119;28;20055;-67
2023/11/10 06:58:05;;;;;;;1.60;1.50;;;;;;;;;;10246040;29;20046;-67
2023/11/10 07:03:12;;;;;;;2.60;1.35;;;;;;;;;;10246651;28;20074;-66
2023/11/10 07:08:12;;;;;;;1.90;1.60;;;;;;;;;;10241591;29;20376;-66
2023/11/10 07:13:14;;;;;;;1.88;1.60;;;;;;;;;;10241433;28;20114;-66
2023/11/10 07:18:16;;;;;;;1.75;1.50;;;;;;;;;;10245328;28;20577;-66
2023/11/10 07:23:16;;;;;;;2.70;1.98;;;;;;;;;;10244374;29;20055;-67
2023/11/10 07:28:17;;;;;;;1.95;1.50;;;;;;;;;;10244564;28;20035;-66
2023/11/10 07:33:17;;;;;;;1.60;1.50;;;;;;;;;;10246541;28;20106;-65
2023/11/10 07:38:18;;;;;;;1.48;1.38;;;;;;;;;;10245425;29;20028;-66
2023/11/10 07:43:18;;;;;;;1.55;1.45;;;;;;;;;;10245352;28;20071;-66
2023/11/10 07:48:19;;;;;;;1.50;1.33;;;;;;;;;;10244425;28;20022;-66
2023/11/10 07:53:20;;;;;;;1.65;1.55;;;;;;;;;;10244712;29;20182;-66
2023/11/10 07:58:22;;;;;;;2.03;1.60;;;;;;;;;;10244965;29;20094;-65
2023/11/10 08:03:25;;;;;;;4.00;1.70;;;;;;;;;;10245361;28;20063;-65
2023/11/10 08:08:26;;;;;;;1.40;1.30;;;;;;;;;;10251448;28;20493;-66
2023/11/10 08:13:27;;;;;;;1.50;1.40;;;;;;;;;;10257034;28;20035;-66
2023/11/10 08:18:28;;;;;;;3.70;1.58;;;;;;;;;;10258692;28;20098;-66
2023/11/10 08:23:28;;;;;;;4.93;1.70;;;;;;;;;;10245226;28;20027;-66
2023/11/10 08:28:29;;;;;;;6.22;1.48;;;;;;;;;;10248633;28;20046;-64
2023/11/10 08:33:30;;;;;;;3.42;1.73;;;;;;;;;;10254645;28;20248;-65
2023/11/10 08:38:31;;;;;;;2.20;1.60;;;;;;;;;;10232333;28;20034;-65
2023/11/10 08:43:32;;;;;;;4.05;1.88;;;;;;;;;;10236154;28;20042;-65
2023/11/10 08:48:34;;;;;;;5.75;1.70;;;;;;;;;;10240288;28;20031;-66
2023/11/10 08:53:34;;;;;;;5.13;3.90;;;;;;;;;;10245487;28;20182;-64
2023/11/10 08:58:35;;;;;;;9.82;5.97;;;;;;;;;;10244089;28;20093;-63
2023/11/10 09:03:35;;;;;;;8.18;7.00;;;;;;;;;;10254700;28;20062;-63
2023/11/10 09:08:36;;;;;;;12.32;6.75;;;;;;;;;;10252074;28;20082;-64
2023/11/10 09:13:39;;;;;;;9.27;6.90;;;;;;;;;;10249992;28;20038;-64
2023/11/10 09:18:39;;;;;;;11.65;7.65;;;;;;;;;;10248385;28;20471;-63
2023/11/10 09:23:40;;;;;;;18.13;7.68;;;;;;;;;;10251253;28;20019;-63
2023/11/10 09:28:41;;;;;;;17.63;6.88;;;;;;;;;;10234805;28;20042;-63
2023/11/10 09:33:42;;;;;;;13.10;7.22;;;;;;;;;;10252257;28;20039;-64
2023/11/10 09:38:42;;;;;;;13.45;6.20;;;;;;;;;;10248625;28;20039;-64
2023/11/10 09:43:48;;;;;;;9.50;6.10;;;;;;;;;;10248084;28;20038;-62
2023/11/10 09:48:49;;;;;;;7.88;4.78;;;;;;;;;;10246803;28;20030;-62
2023/11/10 09:53:52;;;;;;;9.40;5.07;;;;;;;;;;10257004;28;20039;-64
2023/11/10 09:58:53;;;;;;;6.90;5.20;;;;;;;;;;10243607;28;20093;-65
2023/11/10 10:03:53;;;;;;;5.18;4.38;;;;;;;;;;10248934;28;20106;-64
2023/11/10 10:08:55;;;;;;;11.82;4.70;;;;;;;;;;10248012;28;20078;-64
2023/11/10 10:13:57;;;;;;;5.18;3.95;;;;;;;;;;10246002;28;20038;-64
2023/11/10 10:18:59;;;;;;;7.20;3.47;;;;;;;;;;10243695;28;20042;-65
2023/11/10 10:23:59;;;;;;;5.65;3.45;;;;;;;;;;10246587;28;20041;-65
2023/11/10 10:29:00;;;;;;;4.43;2.80;;;;;;;;;;10247185;28;20038;-64
2023/11/10 10:34:04;;;;;;;3.47;2.75;;;;;;;;;;10249519;28;20024;-64
2023/11/10 10:39:12;;;;;;;4.20;2.55;;;;;;;;;;10247711;28;20031;-65
2023/11/10 10:44:14;;;;;;;5.18;2.47;;;;;;;;;;10245999;28;20042;-65
2023/11/10 10:49:17;;;;;;;3.78;2.33;;;;;;;;;;10244133;28;20036;-66
2023/11/10 10:54:21;;;;;;;3.60;2.58;;;;;;;;;;10242773;28;20130;-65
2023/11/10 10:59:22;;;;;;;2.63;2.33;;;;;;;;;;10240251;28;20027;-67
2023/11/10 11:04:37;;;;;;;3.22;2.65;;;;;;;;;;10242944;28;20034;-64
2023/11/10 11:10:15;;;;;;;3.13;2.40;;;;;;;;;;10237448;28;20046;-66
2023/11/10 11:16:07;;;;;;;2.45;1.90;;;;;;;;;;10244603;28;20478;-65
2023/11/10 11:21:13;;;;;;;3.35;2.20;;;;;;;;;;10231972;28;20043;-65
2023/11/10 11:26:16;;;;;;;3.75;2.20;;;;;;;;;;10245044;28;20042;-64
2023/11/10 11:31:18;;;;;;;3.38;2.25;;;;;;;;;;10230701;28;20443;-66
2023/11/10 11:36:22;;;;;;;2.63;2.00;;;;;;;;;;10245655;28;20541;-64
2023/11/10 11:41:25;;;;;;;3.67;2.17;;;;;;;;;;10239689;28;20424;-65
2023/11/10 11:46:35;;;;;;;3.63;1.85;;;;;;;;;;10237240;28;20023;-63
2023/11/10 11:51:37;;;;;;;2.20;2.00;;;;;;;;;;10263338;23;20141;-64
2023/11/10 11:56:38;;;;;;;1.80;1.70;;;;;;;;;;10238711;28;20053;-61
2023/11/10 12:01:39;;;;;;;1.77;1.65;;;;;;;;;;10239883;28;20031;-66
2023/11/10 12:06:41;;;;;;;3.33;2.05;;;;;;;;;;10234955;28;20483;-68
2023/11/10 12:11:43;;;;;;;3.88;2.35;;;;;;;;;;10241596;28;20042;-67
2023/11/10 12:16:47;;;;;;;2.20;2.00;;;;;;;;;;10242358;28;20059;-65
2023/11/10 12:21:48;;;;;;;3.05;2.13;;;;;;;;;;10239659;28;20028;-67
2023/11/10 12:26:51;;;;;;;3.42;2.10;;;;;;;;;;10241425;28;20114;-64
2023/11/10 12:31:53;;;;;;;2.70;1.90;;;;;;;;;;10232610;28;20034;-63
2023/11/10 12:36:57;;;;;;;3.38;2.05;;;;;;;;;;10249085;28;20074;-64
2023/11/10 12:42:00;;;;;;;1.88;1.73;;;;;;;;;;10231818;28;20114;-66
2023/11/10 12:47:06;;;;;;;4.80;1.83;;;;;;;;;;10247773;28;20039;-65
2023/11/10 12:52:09;;;;;;;2.72;1.90;;;;;;;;;;10249866;28;20057;-64
2023/11/10 12:57:10;;;;;;;4.38;2.10;;;;;;;;;;10247919;28;20089;-63
2023/11/10 13:02:12;;;;;;;2.50;2.25;;;;;;;;;;10249659;28;20379;-64
2023/11/10 13:07:12;;;;;;;2.20;2.00;;;;;;;;;;10245140;28;20105;-63
2023/11/10 13:12:14;;;;;;;2.72;1.98;;;;;;;;;;10248565;28;20027;-57
2023/11/10 13:17:18;;;;;;;2.67;2.00;;;;;;;;;;10248082;28;20450;-61
2023/11/10 13:22:20;;;;;;;2.08;1.88;;;;;;;;;;10242212;28;20064;-61
2023/11/10 13:27:23;;;;;;;5.63;2.15;;;;;;;;;;10248471;28;20051;-64
2023/11/10 13:32:23;;;;;;;5.75;2.45;;;;;;;;;;10249277;28;20050;-64
2023/11/10 13:37:24;;;;;;;4.47;2.20;;;;;;;;;;10248855;28;20035;-63
2023/11/10 13:42:25;;;;;;;3.28;2.67;;;;;;;;;;10241540;28;20085;-63
2023/11/10 13:47:26;;;;;;;3.33;2.13;;;;;;;;;;10247838;28;20031;-61
2023/11/10 13:52:26;;;;;;;2.83;1.80;;;;;;;;;;10247852;28;20065;-62
2023/11/10 13:57:27;;;;;;;4.32;2.40;;;;;;;;;;10247788;28;20036;-62
2023/11/10 14:02:28;;;;;;;2.28;1.88;;;;;;;;;;10246473;28;20031;-62
2023/11/10 14:07:30;;;;;;;4.57;2.10;;;;;;;;;;10246794;28;20031;-63
2023/11/10 14:12:31;;;;;;;9.77;2.03;;;;;;;;;;10246992;28;20031;-63
2023/11/10 14:17:32;;;;;;;2.65;2.30;;;;;;;;;;10245929;28;20415;-63
2023/11/10 14:22:33;;;;;;;7.00;1.90;;;;;;;;;;10244452;28;20039;-66
2023/11/10 14:27:35;;;;;;;2.78;2.08;;;;;;;;;;10240637;28;20027;-63
2023/11/10 14:32:37;;;;;;;3.92;2.30;;;;;;;;;;10237910;28;20039;-65
2023/11/10 14:37:40;;;;;;;3.13;2.10;;;;;;;;;;10238148;28;20051;-58
2023/11/10 14:42:43;;;;;;;3.40;2.17;;;;;;;;;;10232132;28;20061;-66
2023/11/10 14:47:44;;;;;;;3.95;1.90;;;;;;;;;;10238699;28;20038;-66
2023/11/10 14:52:45;;;;;;;8.13;2.08;;;;;;;;;;10226153;28;20558;-65
2023/11/10 14:57:45;;;;;;;5.45;2.00;;;;;;;;;;10238963;28;20028;-65
2023/11/10 15:02:46;;;;;;;4.40;2.00;;;;;;;;;;10241010;28;20027;-65
2023/11/10 15:07:46;;;;;;;7.45;1.98;;;;;;;;;;10239574;28;20039;-66
2023/11/10 15:12:47;;;;;;;3.05;1.80;;;;;;;;;;10245299;28;20090;-58
2023/11/10 15:17:48;;;;;;;2.55;1.92;;;;;;;;;;10244322;28;20028;-64
2023/11/10 15:22:50;;;;;;;4.75;2.15;;;;;;;;;;10242787;28;20028;-61
2023/11/10 15:27:51;;;;;;;2.35;1.85;;;;;;;;;;10241570;28;20484;-64
2023/11/10 15:32:53;;;;;;;3.25;1.92;;;;;;;;;;10242623;28;20053;-60
2023/11/10 15:37:55;;;;;;;2.05;1.85;;;;;;;;;;10242538;28;20031;-64
2023/11/10 15:42:55;;;;;;;6.60;1.42;;;;;;;;;;10242949;28;20054;-61
2023/11/10 15:47:56;;;;;;;2.15;1.90;;;;;;;;;;10241637;28;20048;-61
2023/11/10 15:52:56;;;;;;;2.47;1.83;;;;;;;;;;10243908;28;20046;-58
2023/11/10 15:57:57;;;;;;;2.35;1.60;;;;;;;;;;10244054;28;20427;-58
2023/11/10 16:02:58;;;;;;;4.47;1.95;;;;;;;;;;10244971;28;20407;-61
2023/11/10 16:07:58;;;;;;;4.03;1.80;;;;;;;;;;10247675;28;20105;-64
2023/11/10 16:12:59;;;;;;;3.20;1.85;;;;;;;;;;10251070;28;20054;-64
2023/11/10 16:18:00;;;;;;;4.50;1.88;;;;;;;;;;10247884;28;20094;-62
2023/11/10 16:23:00;;;;;;;3.45;1.80;;;;;;;;;;10249846;28;20034;-64
2023/11/10 16:28:01;;;;;;;8.07;2.05;;;;;;;;;;10251284;28;20047;-50
2023/11/10 16:33:02;;;;;;;6.35;2.38;;;;;;;;;;10255910;28;20259;-65
2023/11/10 16:38:03;;;;;;;5.97;1.98;;;;;;;;;;10252766;28;20086;-64
2023/11/10 16:43:04;;;;;;;4.55;2.65;;;;;;;;;;10250815;28;20101;-64
2023/11/10 16:48:05;;;;;;;4.15;1.85;;;;;;;;;;10225139;28;20039;-65
2023/11/10 16:53:06;;;;;;;6.68;2.40;;;;;;;;;;10250843;28;20037;-63
2023/11/10 16:58:06;;;;;;;5.93;1.90;;;;;;;;;;10228310;28;20039;-63
2023/11/10 17:03:07;;;;;;;7.50;2.60;;;;;;;;;;10233520;28;20034;-62
2023/11/10 17:08:08;;;;;;;7.32;2.30;;;;;;;;;;10239298;28;20461;-64
2023/11/10 17:13:09;;;;;;;4.28;2.30;;;;;;;;;;10239501;28;20114;-64
2023/11/10 17:18:11;;;;;;;10.63;2.50;;;;;;;;;;10251408;28;20078;-66
2023/11/10 17:23:12;;;;;;;5.70;2.15;;;;;;;;;;10246977;28;20419;-65
2023/11/10 17:28:13;;;;;;;8.93;2.30;;;;;;;;;;10249928;28;20424;-58
2023/11/10 17:33:14;;;;;;;3.15;2.20;;;;;;;;;;10266941;28;20342;-64
2023/11/10 17:38:14;;;;;;;4.90;2.30;;;;;;;;;;10247241;29;20031;-63
2023/11/10 17:43:16;;;;;;;7.53;2.10;;;;;;;;;;10246105;28;20030;-62
2023/11/10 17:48:16;;;;;;;7.57;2.67;;;;;;;;;;10249873;28;20097;-62
2023/11/10 17:53:19;;;;;;;6.18;2.35;;;;;;;;;;10249033;29;20094;-61
2023/11/10 17:58:21;;;;;;;7.28;2.42;;;;;;;;;;10248872;28;20035;-62
2023/11/10 18:03:22;;;;;;;7.25;2.50;;;;;;;;;;10248726;28;20522;-61
2023/11/10 18:08:23;;;;;;;2.13;1.92;;;;;;;;;;10248871;29;20074;-62
2023/11/10 18:13:24;;;;;;;3.45;2.17;;;;;;;;;;10247854;28;20442;-63
2023/11/10 18:18:25;;;;;;;2.97;2.20;;;;;;;;;;10252823;28;20298;-63
2023/11/10 18:23:30;;;;;;;5.05;2.40;;;;;;;;;;10251295;28;20329;-57
2023/11/10 18:28:30;;;;;;;6.00;2.70;;;;;;;;;;10243495;28;20041;-63
2023/11/10 18:33:31;;;;;;;2.85;2.28;;;;;;;;;;10240884;28;20031;-61
2023/11/10 18:38:33;;;;;;;2.47;2.13;;;;;;;;;;10245855;29;20583;-63
2023/11/10 18:43:34;;;;;;;2.53;2.15;;;;;;;;;;10253879;28;20395;-62
2023/11/10 18:48:36;;;;;;;3.95;1.90;;;;;;;;;;10242490;28;20475;-63
2023/11/10 18:53:39;;;;;;;4.68;2.08;;;;;;;;;;10239484;28;20070;-59
2023/11/10 18:58:40;;;;;;;2.88;2.20;;;;;;;;;;10248773;28;20092;-62
2023/11/10 19:03:40;;;;;;;4.18;2.33;;;;;;;;;;10244464;28;20090;-61
2023/11/10 19:08:41;;;;;;;8.32;2.83;;;;;;;;;;10239757;28;20030;-62
2023/11/10 19:13:41;;;;;;;3.92;2.22;;;;;;;;;;10247795;28;20043;-63
2023/11/10 19:18:42;;;;;;;3.40;2.42;;;;;;;;;;10240315;28;20042;-61
2023/11/10 19:23:43;;;;;;;4.80;2.42;;;;;;;;;;10247980;28;20023;-64
2023/11/10 19:28:44;;;;;;;4.32;2.40;;;;;;;;;;10241908;28;20039;-66
2023/11/10 19:33:44;;;;;;;9.95;2.28;;;;;;;;;;10245512;28;20325;-64
2023/11/10 19:38:45;;;;;;;6.63;2.33;;;;;;;;;;10241915;28;20118;-64
2023/11/10 19:43:46;;;;;;;3.97;2.00;;;;;;;;;;10244916;28;20391;-64
2023/11/10 19:48:49;;;;;;;4.80;2.20;;;;;;;;;;10244774;28;20027;-64
2023/11/10 19:53:50;;;;;;;3.60;2.78;;;;;;;;;;10244429;28;20039;-64
2023/11/10 19:58:51;;;;;;;7.25;2.65;;;;;;;;;;10245060;28;20035;-64
2023/11/10 20:03:51;;;;;;;6.05;2.47;;;;;;;;;;10247538;28;20027;-64
2023/11/10 20:08:52;;;;;;;9.40;3.00;;;;;;;;;;10242507;28;20034;-65
2023/11/10 20:13:52;;;;;;;3.30;2.88;;;;;;;;;;10239977;28;20098;-65
2023/11/10 20:18:53;;;;;;;5.30;2.67;;;;;;;;;;10235881;28;20043;-62
2023/11/10 20:23:54;;;;;;;6.40;2.50;;;;;;;;;;10245869;28;20032;-62
2023/11/10 20:28:54;;;;;;;10.43;2.72;;;;;;;;;;10248635;28;20296;-64
2023/11/10 20:33:56;;;;;;;7.47;3.25;;;;;;;;;;10253038;28;20027;-61
2023/11/10 20:38:56;;;;;;;3.80;2.92;;;;;;;;;;10246361;28;20136;-61
2023/11/10 20:43:57;;;;;;;4.47;2.90;;;;;;;;;;10256095;28;20438;-62
2023/11/10 20:48:58;;;;;;;2.65;2.45;;;;;;;;;;10248866;28;20271;-60
2023/11/10 20:53:58;;;;;;;4.93;2.80;;;;;;;;;;10270729;28;20411;-63
2023/11/10 20:59:00;;;;;;;4.90;2.80;;;;;;;;;;10255677;28;20031;-63
2023/11/10 21:04:00;;;;;;;3.75;2.80;;;;;;;;;;10252632;28;20050;-62
2023/11/10 21:09:01;;;;;;;6.30;3.58;;;;;;;;;;10254532;28;20379;-62
2023/11/10 21:14:01;;;;;;;7.00;2.88;;;;;;;;;;10244745;28;20419;-63
2023/11/10 21:19:03;;;;;;;4.25;2.67;;;;;;;;;;10254247;28;20120;-62
2023/11/10 21:24:05;;;;;;;9.68;3.03;;;;;;;;;;10249907;28;20024;-62
2023/11/10 21:29:05;;;;;;;6.45;2.85;;;;;;;;;;10252117;28;20028;-65
2023/11/10 21:34:07;;;;;;;13.25;3.17;;;;;;;;;;10244165;28;20050;-58
2023/11/10 21:39:11;;;;;;;12.88;3.28;;;;;;;;;;10245493;28;20475;-62
2023/11/10 21:44:11;;;;;;;8.68;2.90;;;;;;;;;;10238943;28;20035;-62
2023/11/10 21:49:13;;;;;;;7.95;2.90;;;;;;;;;;10254237;28;20027;-64
2023/11/10 21:54:14;;;;;;;12.05;2.88;;;;;;;;;;10239719;28;20126;-62
2023/11/10 21:59:16;;;;;;;8.05;2.90;;;;;;;;;;10248202;28;20027;-61
2023/11/10 22:04:16;;;;;;;6.85;2.83;;;;;;;;;;10243885;28;20031;-64
2023/11/10 22:09:17;;;;;;;9.25;2.40;;;;;;;;;;10247220;28;20498;-61
2023/11/10 22:14:20;;;;;;;3.60;2.50;;;;;;;;;;10246214;29;20035;-61
2023/11/10 22:19:21;;;;;;;6.50;3.20;;;;;;;;;;10252527;28;20074;-60
2023/11/10 22:24:21;;;;;;;5.82;2.83;;;;;;;;;;10243273;28;20026;-63
2023/11/10 22:29:22;;;;;;;6.70;2.85;;;;;;;;;;10246826;28;20091;-64
2023/11/10 22:34:23;;;;;;;5.10;2.92;;;;;;;;;;10246077;28;20396;-61
2023/11/10 22:39:24;;;;;;;2.67;2.30;;;;;;;;;;10245494;28;20491;-62
2023/11/10 22:44:24;;;;;;;7.40;2.88;;;;;;;;;;10247758;28;20035;-62
2023/11/10 22:49:25;;;;;;;6.78;2.47;;;;;;;;;;10240081;28;20428;-62
2023/11/10 22:54:26;;;;;;;5.30;2.17;;;;;;;;;;10244033;28;20380;-61
2023/11/10 22:59:27;;;;;;;2.83;2.20;;;;;;;;;;10241795;28;20061;-62
2023/11/10 23:04:28;;;;;;;15.90;2.30;;;;;;;;;;10245439;28;20027;-62
2023/11/10 23:09:29;;;;;;;6.90;2.45;;;;;;;;;;10243647;28;20042;-63
2023/11/10 23:14:30;;;;;;;11.57;2.53;;;;;;;;;;10245450;28;20050;-64
2023/11/10 23:19:31;;;;;;;3.63;2.15;;;;;;;;;;10242114;28;20106;-63
2023/11/10 23:24:31;;;;;;;5.75;2.50;;;;;;;;;;10244790;28;20496;-64
2023/11/10 23:29:32;;;;;;;6.75;2.50;;;;;;;;;;10241627;28;20150;-65
2023/11/10 23:34:32;;;;;;;4.40;2.17;;;;;;;;;;10243954;28;20042;-63
2023/11/10 23:39:33;;;;;;;2.15;1.95;;;;;;;;;;10243717;28;20039;-62
2023/11/10 23:44:34;;;;;;;3.33;2.00;;;;;;;;;;10239335;28;20043;-62
2023/11/10 23:49:39;;;;;;;3.90;2.20;;;;;;;;;;10243918;28;20090;-61
2023/11/10 23:54:40;;;;;;;8.02;2.33;;;;;;;;;;10245002;29;20063;-62
2023/11/10 23:59:43;;;;;;;5.07;2.20;;;;;;;;;;10239169;28;20122;-63
